Absecon, New Jersey
Current Conditions -  °F | °C
As of 8:54 AM on Friday 24 Oct 2014 (Local Time) from KACY Reporting Station
Clear Clear  
Wind Chill: 54°   Ceiling: Unl
Heat Index: 54°   Visibility: 10mi
Dew Point: 47°   Wind: 9mph
Humidity: 77%   Direction: 290°WNW
Pressure: 29.85"   Gusts: NA
Location:  39.43°N, 74.51°W
Report Text: KACY 241254Z 29008KT 10SM CLR 12/08 A2985 RMK AO2 SLP106 T01220083
Loading
Personal Weather Stations






























Interactive Weather Map
Tropical Storm Tracking
New forecast layout! Learn more

10-Day Weather Forecast

Advertisements
Track Severe Weather on mobile